createdAt,value
2019-02-14T00:01:01.394Z,101018.00
2019-02-14T00:03:34.799Z,101018.00
2019-02-14T00:06:09.254Z,101012.00
2019-02-14T00:08:42.818Z,101003.00
2019-02-14T00:11:16.086Z,101009.00
2019-02-14T00:13:50.142Z,101012.00
2019-02-14T00:16:23.278Z,101013.00
2019-02-14T00:18:57.016Z,101008.00
2019-02-14T00:21:30.421Z,101010.00
2019-02-14T00:24:04.845Z,101006.00
2019-02-14T00:26:38.368Z,101006.00
2019-02-14T00:29:11.002Z,101015.00
2019-02-14T00:31:44.397Z,101017.00
2019-02-14T00:34:17.488Z,101014.00
2019-02-14T00:36:50.957Z,101004.00
2019-02-14T00:39:26.166Z,101003.00
2019-02-14T00:41:59.750Z,101001.00
2019-02-14T00:44:33.855Z,100996.00
2019-02-14T00:47:07.222Z,101001.00
2019-02-14T00:49:42.104Z,101002.00
2019-02-14T00:52:15.454Z,101006.00
2019-02-14T00:54:48.838Z,101003.00
2019-02-14T00:57:22.264Z,100999.00
2019-02-14T00:59:55.855Z,100999.00
2019-02-14T01:02:29.438Z,100987.00
2019-02-14T01:05:02.776Z,100989.00
2019-02-14T01:07:36.048Z,100990.00
2019-02-14T01:10:10.047Z,100985.00
2019-02-14T01:12:43.246Z,100988.00
2019-02-14T01:15:18.010Z,100995.00
2019-02-14T01:17:51.254Z,100992.00
2019-02-14T01:20:25.583Z,100989.00
2019-02-14T01:22:59.079Z,100979.00
2019-02-14T01:25:34.244Z,100981.00
2019-02-14T01:28:06.896Z,100983.00
2019-02-14T01:30:40.295Z,100978.00
2019-02-14T01:33:13.143Z,100978.00
2019-02-14T01:35:45.883Z,100970.00
2019-02-14T01:38:20.088Z,100973.00
2019-02-14T01:40:52.626Z,100973.00
2019-02-14T01:43:25.649Z,100971.00
2019-02-14T01:45:58.417Z,100973.00
2019-02-14T01:48:31.206Z,100972.00
2019-02-14T01:51:04.286Z,100959.00
2019-02-14T01:53:36.962Z,100961.00
2019-02-14T01:56:10.562Z,100969.00
2019-02-14T01:58:43.376Z,100956.00
2019-02-14T02:01:16.588Z,100960.00
2019-02-14T02:03:49.575Z,100957.00
2019-02-14T02:06:22.336Z,100946.00
2019-02-14T02:08:55.577Z,100945.00
2019-02-14T02:11:28.519Z,100937.00
2019-02-14T02:14:02.617Z,100934.00
2019-02-14T02:16:35.717Z,100936.00
2019-02-14T02:19:09.804Z,100923.00
2019-02-14T02:21:43.447Z,100918.00
2019-02-14T02:24:16.092Z,100925.00
2019-02-14T02:26:50.096Z,100913.00
2019-02-14T02:29:23.433Z,100918.00
2019-02-14T02:31:56.218Z,100920.00
2019-02-14T02:34:29.154Z,100913.00
2019-02-14T02:37:02.230Z,100910.00
2019-02-14T02:39:36.482Z,100929.00
2019-02-14T02:42:09.361Z,100935.00
2019-02-14T02:44:42.751Z,100946.00
2019-02-14T02:47:15.330Z,100942.00
2019-02-14T02:49:48.416Z,100946.00
2019-02-14T02:52:21.185Z,100932.00
2019-02-14T02:54:55.358Z,100935.00
2019-02-14T02:57:28.607Z,100932.00
2019-02-14T03:00:02.839Z,100927.00
2019-02-14T03:02:36.247Z,100912.00
2019-02-14T03:05:11.649Z,100905.00
2019-02-14T03:07:44.438Z,100915.00
2019-02-14T03:10:18.141Z,100913.00
2019-02-14T03:12:50.817Z,100909.00
2019-02-14T03:15:23.777Z,100914.00
2019-02-14T03:17:56.589Z,100908.00
2019-02-14T03:20:29.570Z,100905.00
2019-02-14T03:23:02.255Z,100910.00
2019-02-14T03:25:36.346Z,100913.00
2019-02-14T03:28:09.029Z,100907.00
2019-02-14T03:30:42.159Z,100901.00
2019-02-14T03:33:15.033Z,100896.00
2019-02-14T03:35:49.206Z,100903.00
2019-02-14T03:38:21.925Z,100907.00
2019-02-14T03:40:54.720Z,100901.00
2019-02-14T03:43:27.480Z,100900.00
2019-02-14T03:46:00.442Z,100905.00
2019-02-14T03:48:33.099Z,100901.00
2019-02-14T03:51:05.979Z,100899.00
2019-02-14T03:53:39.543Z,100897.00
2019-02-14T03:56:12.068Z,100899.00
2019-02-14T03:58:44.776Z,100893.00
2019-02-14T04:01:17.702Z,100892.00
2019-02-14T04:03:51.585Z,100889.00
2019-02-14T04:06:27.515Z,100875.00
2019-02-14T04:08:59.677Z,100876.00
2019-02-14T04:11:32.389Z,100880.00
2019-02-14T04:14:05.648Z,100874.00
2019-02-14T04:16:38.275Z,100870.00
2019-02-14T04:19:11.125Z,100874.00
2019-02-14T04:21:43.908Z,100878.00
2019-02-14T04:24:16.876Z,100873.00
2019-02-14T04:26:50.853Z,100876.00
2019-02-14T04:29:23.814Z,100862.00
2019-02-14T04:31:56.605Z,100869.00
2019-02-14T04:34:30.254Z,100881.00
2019-02-14T04:37:03.080Z,100860.00
2019-02-14T04:39:36.923Z,100854.00
2019-02-14T04:42:10.771Z,100862.00
2019-02-14T04:44:43.459Z,100860.00
2019-02-14T04:47:16.959Z,100861.00
2019-02-14T04:49:49.631Z,100857.00
2019-02-14T04:52:22.618Z,100866.00
2019-02-14T04:54:55.272Z,100864.00
2019-02-14T04:57:28.167Z,100861.00
2019-02-14T05:00:00.971Z,100867.00
2019-02-14T05:02:33.620Z,100868.00
2019-02-14T05:05:08.393Z,100861.00
2019-02-14T05:07:41.964Z,100859.00
2019-02-14T05:10:16.150Z,100851.00
2019-02-14T05:12:48.781Z,100846.00
2019-02-14T05:15:21.753Z,100844.00
2019-02-14T05:17:54.533Z,100844.00
2019-02-14T05:20:27.468Z,100843.00
2019-02-14T05:23:00.109Z,100846.00
2019-02-14T05:25:33.008Z,100846.00
2019-02-14T05:28:05.692Z,100847.00
2019-02-14T05:30:39.637Z,100850.00
2019-02-14T05:33:12.256Z,100844.00
2019-02-14T05:35:45.219Z,100844.00
2019-02-14T05:38:18.018Z,100838.00
2019-02-14T05:40:51.731Z,100849.00
2019-02-14T05:43:24.403Z,100839.00
2019-02-14T05:45:57.687Z,100845.00
2019-02-14T05:48:30.390Z,100838.00
2019-02-14T05:51:03.286Z,100846.00
2019-02-14T05:53:35.944Z,100850.00
2019-02-14T05:56:08.838Z,100855.00
2019-02-14T05:58:41.710Z,100857.00
2019-02-14T06:01:16.813Z,100852.00
2019-02-14T06:03:49.524Z,100854.00
2019-02-14T06:06:22.403Z,100858.00
2019-02-14T06:08:54.858Z,100866.00
2019-02-14T06:11:27.967Z,100855.00
2019-02-14T06:14:00.667Z,100856.00
2019-02-14T06:16:33.626Z,100861.00
2019-02-14T06:19:06.426Z,100864.00
2019-02-14T06:21:39.867Z,100864.00
2019-02-14T06:24:12.609Z,100869.00
2019-02-14T06:26:46.464Z,100868.00
2019-02-14T06:29:19.183Z,100865.00
2019-02-14T06:31:52.026Z,100875.00
2019-02-14T06:34:25.841Z,100886.00
2019-02-14T06:36:59.677Z,100891.00
2019-02-14T06:39:33.569Z,100893.00
2019-02-14T06:42:06.376Z,100887.00
2019-02-14T06:44:40.230Z,100898.00
2019-02-14T06:47:12.954Z,100898.00
2019-02-14T06:49:45.948Z,100901.00
2019-02-14T06:52:18.752Z,100906.00
2019-02-14T06:54:51.684Z,100911.00
2019-02-14T06:57:24.627Z,100909.00
2019-02-14T06:59:58.375Z,100917.00
2019-02-14T07:02:32.544Z,100926.00
2019-02-14T07:05:06.058Z,100925.00
2019-02-14T07:07:39.316Z,100930.00
2019-02-14T07:10:15.582Z,100932.00
2019-02-14T07:12:48.356Z,100937.00
2019-02-14T07:15:22.422Z,100941.00
2019-02-14T07:17:55.764Z,100947.00
2019-02-14T07:20:29.360Z,100948.00
2019-02-14T07:23:02.028Z,100946.00
2019-02-14T07:25:34.946Z,100937.00
2019-02-14T07:28:07.844Z,100949.00
2019-02-14T07:30:40.563Z,100956.00
2019-02-14T07:33:13.422Z,100959.00
2019-02-14T07:35:46.068Z,100961.00
2019-02-14T07:38:19.047Z,100954.00
2019-02-14T07:40:52.441Z,100964.00
2019-02-14T07:43:26.248Z,100972.00
2019-02-14T07:45:58.891Z,100975.00
2019-02-14T07:48:31.507Z,100975.00
2019-02-14T07:51:04.406Z,100982.00
2019-02-14T07:53:37.270Z,100980.00
2019-02-14T07:56:09.716Z,100977.00
2019-02-14T07:58:42.395Z,100979.00
2019-02-14T08:01:15.287Z,100987.00
2019-02-14T08:03:48.931Z,100980.00
2019-02-14T08:06:22.924Z,100987.00
2019-02-14T08:08:56.744Z,100985.00
2019-02-14T08:11:30.738Z,100989.00
2019-02-14T08:14:03.416Z,100996.00
2019-02-14T08:16:36.351Z,100992.00
2019-02-14T08:19:09.150Z,100996.00
2019-02-14T08:21:42.746Z,100991.00
2019-02-14T08:24:15.523Z,101003.00
2019-02-14T08:26:48.423Z,101008.00
2019-02-14T08:29:21.371Z,101011.00
2019-02-14T08:31:54.067Z,101007.00
2019-02-14T08:34:27.261Z,101024.00
2019-02-14T08:37:00.054Z,101022.00
2019-02-14T08:39:32.948Z,101025.00
2019-02-14T08:42:05.825Z,101021.00
2019-02-14T08:44:40.218Z,101024.00
2019-02-14T08:47:13.007Z,101031.00
2019-02-14T08:49:47.261Z,101033.00
2019-02-14T08:52:21.233Z,101042.00
2019-02-14T08:54:54.106Z,101045.00
2019-02-14T08:57:27.126Z,101046.00
2019-02-14T09:00:00.897Z,101047.00
2019-02-14T09:02:33.693Z,101045.00
2019-02-14T09:05:06.238Z,101051.00
2019-02-14T09:07:39.374Z,101058.00
2019-02-14T09:10:19.202Z,101050.00
2019-02-14T09:12:51.778Z,101060.00
2019-02-14T09:15:24.885Z,101062.00
2019-02-14T09:17:57.556Z,101063.00
2019-02-14T09:20:30.499Z,101070.00
2019-02-14T09:23:03.441Z,101057.00
2019-02-14T09:25:36.118Z,101076.00
2019-02-14T09:28:09.345Z,101078.00
2019-02-14T09:30:42.271Z,101082.00
2019-02-14T09:33:15.162Z,101082.00
2019-02-14T09:35:48.048Z,101077.00
2019-02-14T09:38:21.084Z,101080.00
2019-02-14T09:40:54.125Z,101091.00
2019-02-14T09:43:29.941Z,101107.00
2019-02-14T09:46:02.050Z,101103.00
2019-02-14T09:48:35.152Z,101105.00
2019-02-14T09:51:08.010Z,101100.00
2019-02-14T09:53:40.701Z,101108.00
2019-02-14T09:56:13.603Z,101104.00
2019-02-14T09:58:46.493Z,101107.00
2019-02-14T10:01:19.274Z,101103.00
2019-02-14T10:03:52.316Z,101107.00
2019-02-14T10:06:26.763Z,101110.00
2019-02-14T10:09:00.734Z,101103.00
2019-02-14T10:11:33.564Z,101102.00
2019-02-14T10:14:06.854Z,101095.00
2019-02-14T10:16:39.858Z,101101.00
2019-02-14T10:19:13.541Z,101105.00
2019-02-14T10:21:46.265Z,101101.00
2019-02-14T10:24:19.402Z,101095.00
2019-02-14T10:26:52.211Z,101099.00
2019-02-14T10:29:25.120Z,101095.00
2019-02-14T10:31:57.552Z,101095.00
2019-02-14T10:34:31.864Z,101100.00
2019-02-14T10:37:04.549Z,101094.00
2019-02-14T10:39:37.254Z,101092.00
2019-02-14T10:42:10.029Z,101090.00
2019-02-14T10:44:42.681Z,101088.00
2019-02-14T10:47:15.464Z,101083.00
2019-02-14T10:49:48.270Z,101088.00
2019-02-14T10:52:21.193Z,101087.00
2019-02-14T10:54:54.132Z,101089.00
2019-02-14T10:57:26.806Z,101090.00
2019-02-14T10:59:59.832Z,101093.00
2019-02-14T11:02:32.582Z,101079.00
2019-02-14T11:05:05.460Z,101088.00
2019-02-14T11:07:39.517Z,101084.00
2019-02-14T11:10:14.392Z,101084.00
2019-02-14T11:12:47.392Z,101077.00
2019-02-14T11:15:24.349Z,101079.00
2019-02-14T11:17:57.460Z,101079.00
2019-02-14T11:20:30.325Z,101076.00
2019-02-14T11:23:03.165Z,101078.00
2019-02-14T11:25:38.166Z,101085.00
2019-02-14T11:28:12.006Z,101082.00
2019-02-14T11:30:44.629Z,101085.00
2019-02-14T11:33:17.606Z,101086.00
2019-02-14T11:35:50.402Z,101084.00
2019-02-14T11:38:23.414Z,101080.00
2019-02-14T11:40:56.321Z,101088.00
2019-02-14T11:43:28.971Z,101082.00
2019-02-14T11:46:01.793Z,101082.00
2019-02-14T11:48:34.811Z,101089.00
2019-02-14T11:51:07.619Z,101081.00
2019-02-14T11:53:40.716Z,101076.00
2019-02-14T11:56:13.715Z,101080.00
2019-02-14T11:58:46.571Z,101084.00
2019-02-14T12:01:19.356Z,101086.00
2019-02-14T12:03:52.169Z,101083.00
2019-02-14T12:06:25.238Z,101082.00
2019-02-14T12:09:00.061Z,101083.00
2019-02-14T12:11:32.111Z,101081.00
2019-02-14T12:14:05.383Z,101084.00
2019-02-14T12:16:38.214Z,101076.00
2019-02-14T12:19:12.710Z,101072.00
2019-02-14T12:21:45.402Z,101075.00
2019-02-14T12:24:18.368Z,101075.00
2019-02-14T12:26:51.163Z,101066.00
2019-02-14T12:29:23.826Z,101070.00
2019-02-14T12:31:56.923Z,101065.00
2019-02-14T12:34:29.740Z,101055.00
2019-02-14T12:37:02.619Z,101058.00
2019-02-14T12:39:35.493Z,101054.00
2019-02-14T12:42:08.477Z,101044.00
2019-02-14T12:44:41.253Z,101038.00
2019-02-14T12:47:14.128Z,101038.00
2019-02-14T12:49:47.166Z,101042.00
2019-02-14T12:52:19.706Z,101035.00
2019-02-14T12:54:52.492Z,101031.00
2019-02-14T12:57:25.210Z,101027.00
2019-02-14T12:59:57.844Z,101027.00
2019-02-14T13:02:30.998Z,101029.00
2019-02-14T13:05:03.702Z,101030.00
2019-02-14T13:07:36.682Z,101034.00
2019-02-14T13:10:14.223Z,101034.00
2019-02-14T13:12:47.127Z,101029.00
2019-02-14T13:15:30.209Z,101026.00
2019-02-14T13:18:03.331Z,101030.00
2019-02-14T13:20:35.968Z,101026.00
2019-02-14T13:23:09.100Z,101026.00
2019-02-14T13:25:41.959Z,101024.00
2019-02-14T13:28:16.452Z,101022.00
2019-02-14T13:30:49.340Z,101019.00
2019-02-14T13:33:23.454Z,101028.00
2019-02-14T13:35:56.372Z,101027.00
2019-02-14T13:38:29.292Z,101027.00
2019-02-14T13:41:02.114Z,101022.00
2019-02-14T13:43:35.271Z,101023.00
2019-02-14T13:46:08.317Z,101022.00
2019-02-14T13:48:41.282Z,101017.00
2019-02-14T13:51:14.267Z,101020.00
2019-02-14T13:53:47.235Z,101023.00
2019-02-14T13:56:20.039Z,101027.00
2019-02-14T13:58:52.823Z,101022.00
2019-02-14T14:01:25.698Z,101018.00
2019-02-14T14:03:58.376Z,101014.00
2019-02-14T14:06:32.216Z,101008.00
2019-02-14T14:09:05.364Z,101005.00
2019-02-14T14:11:38.848Z,101007.00
2019-02-14T14:14:12.276Z,101007.00
2019-02-14T14:16:44.895Z,101007.00
2019-02-14T14:19:17.540Z,101011.00
2019-02-14T14:21:51.464Z,101003.00
2019-02-14T14:24:24.917Z,101010.00
2019-02-14T14:26:57.717Z,101005.00
2019-02-14T14:29:31.344Z,101000.00
2019-02-14T14:32:04.107Z,100989.00
2019-02-14T14:34:37.927Z,100999.00
2019-02-14T14:37:11.099Z,100989.00
2019-02-14T14:39:47.802Z,100992.00
2019-02-14T14:42:35.351Z,100995.00
2019-02-14T14:45:09.582Z,100993.00
2019-02-14T14:47:42.049Z,100988.00
2019-02-14T14:50:14.721Z,100988.00
2019-02-14T14:52:47.445Z,100992.00
2019-02-14T14:55:20.413Z,100994.00
2019-02-14T14:57:52.979Z,100998.00
2019-02-14T15:00:26.688Z,100995.00
2019-02-14T15:02:59.247Z,101010.00
2019-02-14T15:05:32.816Z,100997.00
2019-02-14T15:08:05.564Z,100996.00
2019-02-14T15:10:38.541Z,100998.00
2019-02-14T15:13:11.355Z,100996.00
2019-02-14T15:15:45.440Z,100989.00
2019-02-14T15:18:18.556Z,100988.00
2019-02-14T15:20:51.504Z,100985.00
2019-02-14T15:23:24.309Z,100985.00
2019-02-14T15:25:58.009Z,100982.00
2019-02-14T15:28:30.549Z,100980.00
2019-02-14T15:31:03.163Z,100985.00
2019-02-14T15:33:36.345Z,100981.00
2019-02-14T15:36:09.439Z,100983.00
2019-02-14T15:38:42.425Z,100983.00
2019-02-14T15:41:15.217Z,100979.00
2019-02-14T15:43:47.907Z,100975.00
2019-02-14T15:46:20.591Z,100974.00
2019-02-14T15:48:53.451Z,100967.00
2019-02-14T15:51:26.880Z,100976.00
2019-02-14T15:53:59.553Z,100972.00
2019-02-14T15:56:33.363Z,100961.00
2019-02-14T15:59:06.340Z,100965.00
2019-02-14T16:01:41.662Z,100966.00
2019-02-14T16:04:13.388Z,100965.00
2019-02-14T16:06:46.444Z,100963.00
2019-02-14T16:09:18.980Z,100960.00
2019-02-14T16:11:53.087Z,100958.00
2019-02-14T16:14:25.773Z,100953.00
2019-02-14T16:16:59.020Z,100948.00
2019-02-14T16:19:32.899Z,100954.00
2019-02-14T16:22:06.915Z,100944.00
2019-02-14T16:24:41.229Z,100948.00
2019-02-14T16:27:13.985Z,100958.00
2019-02-14T16:29:47.210Z,100968.00
2019-02-14T16:32:20.863Z,100956.00
2019-02-14T16:34:53.682Z,100956.00
2019-02-14T16:37:26.863Z,100952.00
2019-02-14T16:39:59.650Z,100958.00
2019-02-14T16:42:33.006Z,100960.00
2019-02-14T16:45:05.823Z,100953.00
2019-02-14T16:47:38.715Z,100951.00
2019-02-14T16:50:12.363Z,100953.00
2019-02-14T16:52:44.997Z,100951.00
2019-02-14T16:55:18.148Z,100949.00
2019-02-14T16:57:50.952Z,100953.00
2019-02-14T17:00:23.764Z,100954.00
2019-02-14T17:02:56.726Z,100948.00
2019-02-14T17:05:29.395Z,100947.00
2019-02-14T17:08:02.078Z,100953.00
2019-02-14T17:10:36.946Z,100955.00
2019-02-14T17:13:08.974Z,100957.00
2019-02-14T17:15:41.656Z,100957.00
2019-02-14T17:18:14.537Z,100956.00
2019-02-14T17:20:47.350Z,100960.00
2019-02-14T17:23:20.424Z,100957.00
2019-02-14T17:25:53.192Z,100965.00
2019-02-14T17:28:25.964Z,100964.00
2019-02-14T17:30:58.787Z,100965.00
2019-02-14T17:33:31.539Z,100958.00
2019-02-14T17:36:04.521Z,100962.00
2019-02-14T17:38:37.335Z,100963.00
2019-02-14T17:41:10.265Z,100966.00
2019-02-14T17:43:42.776Z,100963.00
2019-02-14T17:46:15.451Z,100971.00
2019-02-14T17:48:48.439Z,100974.00
2019-02-14T17:51:21.228Z,100969.00
2019-02-14T17:53:54.155Z,100970.00
2019-02-14T17:56:26.784Z,100985.00
2019-02-14T17:59:00.280Z,100981.00
2019-02-14T18:01:34.348Z,100988.00
2019-02-14T18:04:07.748Z,100982.00
2019-02-14T18:06:40.685Z,100986.00
2019-02-14T18:09:13.550Z,100983.00
2019-02-14T18:11:46.349Z,100992.00
2019-02-14T18:14:19.325Z,100993.00
2019-02-14T18:16:52.104Z,100988.00
2019-02-14T18:19:25.516Z,100992.00
2019-02-14T18:21:58.072Z,100992.00
2019-02-14T18:24:30.754Z,101000.00
2019-02-14T18:27:03.435Z,101007.00
2019-02-14T18:29:36.074Z,101002.00
2019-02-14T18:32:08.924Z,101019.00
2019-02-14T18:34:41.574Z,101015.00
2019-02-14T18:37:14.567Z,101014.00
2019-02-14T18:39:47.368Z,101016.00
2019-02-14T18:42:21.134Z,101011.00
2019-02-14T18:44:54.081Z,101013.00
2019-02-14T18:47:26.713Z,101018.00
2019-02-14T18:49:59.599Z,101024.00
2019-02-14T18:52:32.283Z,101024.00
2019-02-14T18:55:05.251Z,101012.00
2019-02-14T18:57:37.938Z,101016.00
2019-02-14T19:00:13.354Z,101031.00
2019-02-14T19:02:46.072Z,101024.00
2019-02-14T19:05:19.896Z,101033.00
2019-02-14T19:07:52.941Z,101044.00
2019-02-14T19:10:25.646Z,101034.00
2019-02-14T19:12:58.549Z,101033.00
2019-02-14T19:15:31.221Z,101038.00
2019-02-14T19:18:04.217Z,101038.00
2019-02-14T19:20:37.093Z,101033.00
2019-02-14T19:23:09.966Z,101042.00
2019-02-14T19:25:42.756Z,101048.00
2019-02-14T19:28:15.737Z,101049.00
2019-02-14T19:30:48.622Z,101042.00
2019-02-14T19:33:21.523Z,101046.00
2019-02-14T19:35:54.405Z,101051.00
2019-02-14T19:38:26.825Z,101060.00
2019-02-14T19:40:59.532Z,101051.00
2019-02-14T19:43:32.111Z,101049.00
2019-02-14T19:46:04.904Z,101048.00
2019-02-14T19:48:38.195Z,101053.00
2019-02-14T19:51:11.305Z,101052.00
2019-02-14T19:53:44.175Z,101056.00
2019-02-14T19:56:18.332Z,101049.00
2019-02-14T19:58:50.853Z,101050.00
2019-02-14T20:01:24.097Z,101054.00
2019-02-14T20:03:56.984Z,101049.00
2019-02-14T20:06:29.941Z,101053.00
2019-02-14T20:09:02.694Z,101050.00
2019-02-14T20:11:37.167Z,101050.00
2019-02-14T20:14:09.300Z,101047.00
2019-02-14T20:16:42.126Z,101055.00
2019-02-14T20:19:14.918Z,101050.00
2019-02-14T20:21:48.340Z,101047.00
2019-02-14T20:24:21.027Z,101045.00
2019-02-14T20:26:54.097Z,101045.00
2019-02-14T20:29:26.803Z,101041.00
2019-02-14T20:31:59.805Z,101045.00
2019-02-14T20:34:32.567Z,101044.00
2019-02-14T20:37:05.560Z,101040.00
2019-02-14T20:39:38.357Z,101040.00
2019-02-14T20:42:11.567Z,101045.00
2019-02-14T20:44:44.381Z,101037.00
2019-02-14T20:47:17.285Z,101030.00
2019-02-14T20:49:50.082Z,101031.00
2019-02-14T20:52:22.973Z,101029.00
2019-02-14T20:54:55.634Z,101036.00
2019-02-14T20:57:28.671Z,101035.00
2019-02-14T21:00:01.661Z,101041.00
2019-02-14T21:02:34.403Z,101041.00
2019-02-14T21:05:07.256Z,101036.00
2019-02-14T21:07:39.961Z,101061.00
2019-02-14T21:10:12.873Z,101054.00
2019-02-14T21:12:45.737Z,101034.00
2019-02-14T21:15:18.611Z,101028.00
2019-02-14T21:17:51.271Z,101046.00
2019-02-14T21:20:24.064Z,101031.00
2019-02-14T21:22:57.447Z,101027.00
2019-02-14T21:25:30.122Z,101028.00
2019-02-14T21:28:03.231Z,101026.00
2019-02-14T21:30:36.472Z,101025.00
2019-02-14T21:33:09.392Z,101031.00
2019-02-14T21:35:42.631Z,101029.00
2019-02-14T21:38:15.618Z,101029.00
2019-02-14T21:40:48.364Z,101027.00
2019-02-14T21:43:21.300Z,101026.00
2019-02-14T21:45:54.185Z,101023.00
2019-02-14T21:48:27.160Z,101028.00
2019-02-14T21:50:59.902Z,101026.00
2019-02-14T21:53:32.692Z,101021.00
2019-02-14T21:56:05.615Z,101017.00
2019-02-14T21:58:38.765Z,101018.00
2019-02-14T22:01:13.390Z,101020.00
2019-02-14T22:03:46.467Z,101019.00
2019-02-14T22:06:19.273Z,101023.00
2019-02-14T22:08:52.238Z,101021.00
2019-02-14T22:11:25.043Z,101022.00
2019-02-14T22:13:58.043Z,101024.00
2019-02-14T22:16:30.587Z,101012.00
2019-02-14T22:19:03.803Z,101019.00
2019-02-14T22:21:37.443Z,101013.00
2019-02-14T22:24:12.431Z,101006.00
2019-02-14T22:26:44.993Z,101008.00
2019-02-14T22:29:18.956Z,101006.00
2019-02-14T22:31:51.788Z,101012.00
2019-02-14T22:34:24.581Z,101002.00
2019-02-14T22:36:57.377Z,101007.00
2019-02-14T22:39:30.846Z,101000.00
2019-02-14T22:42:04.368Z,101005.00
2019-02-14T22:44:37.758Z,100994.00
2019-02-14T22:47:11.823Z,100998.00
2019-02-14T22:49:45.251Z,100995.00
2019-02-14T22:52:18.675Z,100983.00
2019-02-14T22:54:51.948Z,100992.00
2019-02-14T22:57:25.292Z,100984.00
2019-02-14T22:59:57.791Z,100985.00
2019-02-14T23:02:32.395Z,100984.00
2019-02-14T23:05:05.973Z,100977.00
2019-02-14T23:07:39.468Z,100971.00
2019-02-14T23:10:13.032Z,100976.00
2019-02-14T23:12:55.175Z,100965.00
2019-02-14T23:15:20.912Z,100965.00
2019-02-14T23:17:54.182Z,100965.00
2019-02-14T23:20:27.769Z,100966.00
2019-02-14T23:23:01.867Z,100958.00
2019-02-14T23:25:35.602Z,100960.00
2019-02-14T23:28:09.515Z,100953.00
2019-02-14T23:30:42.895Z,100952.00
2019-02-14T23:33:16.381Z,100950.00
2019-02-14T23:35:49.781Z,100948.00
2019-02-14T23:38:23.294Z,100941.00
2019-02-14T23:40:56.999Z,100945.00
2019-02-14T23:43:30.382Z,100939.00
2019-02-14T23:46:03.946Z,100941.00
2019-02-14T23:48:37.197Z,100954.00
2019-02-14T23:51:10.768Z,100937.00
2019-02-14T23:53:44.034Z,100941.00
2019-02-14T23:56:17.479Z,100939.00
2019-02-14T23:58:50.800Z,100928.00
